createdAt,value
2023-04-12T00:00:23.378Z,18.32
2023-04-12T00:01:24.376Z,18.32
2023-04-12T00:02:23.463Z,18.33
2023-04-12T00:03:24.543Z,18.33
2023-04-12T00:04:24.639Z,18.32
2023-04-12T00:05:23.439Z,18.33
2023-04-12T00:06:23.365Z,18.33
2023-04-12T00:07:24.403Z,18.33
2023-04-12T00:08:23.392Z,18.33
2023-04-12T00:09:24.363Z,18.34
2023-04-12T00:10:24.361Z,18.33
2023-04-12T00:11:24.350Z,18.34
2023-04-12T00:12:24.342Z,18.34
2023-04-12T00:13:23.339Z,18.34
2023-04-12T00:14:24.363Z,18.34
2023-04-12T00:15:23.332Z,18.34
2023-04-12T00:16:24.549Z,18.34
2023-04-12T00:17:24.412Z,18.34
2023-04-12T00:18:24.367Z,18.35
2023-04-12T00:19:24.349Z,18.35
2023-04-12T00:20:24.357Z,18.35
2023-04-12T00:21:24.340Z,18.35
2023-04-12T00:22:24.385Z,18.35
2023-04-12T00:23:23.340Z,18.36
2023-04-12T00:24:23.435Z,18.36
2023-04-12T00:25:24.363Z,18.36
2023-04-12T00:26:24.327Z,18.36
2023-04-12T00:27:24.327Z,18.36
2023-04-12T00:28:23.333Z,18.36
2023-04-12T00:29:24.351Z,18.36
2023-04-12T00:30:24.327Z,18.36
2023-04-12T00:31:24.393Z,18.37
2023-04-12T00:32:24.384Z,18.37
2023-04-12T00:33:23.350Z,18.37
2023-04-12T00:34:24.351Z,18.37
2023-04-12T00:35:24.328Z,18.37
2023-04-12T00:36:24.332Z,18.37
2023-04-12T00:37:24.351Z,18.37
2023-04-12T00:38:24.344Z,18.37
2023-04-12T00:39:24.363Z,18.38
2023-04-12T00:40:24.361Z,18.37
2023-04-12T00:41:24.352Z,18.37
2023-04-12T00:42:24.371Z,18.37
2023-04-12T00:43:24.353Z,18.37
2023-04-12T00:44:24.357Z,18.37
2023-04-12T00:45:23.347Z,18.38
2023-04-12T00:46:24.391Z,18.38
2023-04-12T00:47:24.368Z,18.38
2023-04-12T00:48:24.346Z,18.38
2023-04-12T00:49:23.364Z,18.39
2023-04-12T00:50:23.338Z,18.39
2023-04-12T00:51:24.355Z,18.38
2023-04-12T00:52:23.362Z,18.39
2023-04-12T00:53:24.356Z,18.40
2023-04-12T00:54:23.358Z,18.40
2023-04-12T00:55:24.339Z,18.41
2023-04-12T00:56:24.374Z,18.41
2023-04-12T00:57:24.379Z,18.42
2023-04-12T00:58:23.377Z,18.42
2023-04-12T00:59:24.375Z,18.43
2023-04-12T01:00:23.379Z,18.45
2023-04-12T01:01:24.452Z,18.46
2023-04-12T01:02:24.498Z,18.47
2023-04-12T01:03:23.907Z,18.47
2023-04-12T01:04:23.394Z,18.48
2023-04-12T01:05:23.408Z,18.48
2023-04-12T01:06:23.396Z,18.50
2023-04-12T01:07:23.426Z,18.51
2023-04-12T01:08:23.416Z,18.51
2023-04-12T01:09:24.405Z,18.52
2023-04-12T01:10:24.408Z,18.52
2023-04-12T01:11:23.414Z,18.53
2023-04-12T01:12:23.420Z,18.54
2023-04-12T01:13:24.448Z,18.56
2023-04-12T01:14:24.421Z,18.57
2023-04-12T01:15:24.435Z,18.58
2023-04-12T01:16:24.442Z,18.59
2023-04-12T01:17:23.478Z,18.60
2023-04-12T01:18:24.440Z,18.61
2023-04-12T01:19:24.446Z,18.61
2023-04-12T01:20:23.401Z,18.62
2023-04-12T01:21:24.376Z,18.63
2023-04-12T01:22:24.397Z,18.64
2023-04-12T01:23:24.395Z,18.64
2023-04-12T01:24:23.376Z,18.65
2023-04-12T01:25:23.388Z,18.67
2023-04-12T01:26:23.446Z,18.67
2023-04-12T01:27:24.403Z,18.68
2023-04-12T01:28:24.409Z,18.68
2023-04-12T01:29:23.390Z,18.68
2023-04-12T01:30:24.383Z,18.70
2023-04-12T01:31:23.401Z,18.70
2023-04-12T01:32:24.431Z,18.71
2023-04-12T01:33:24.411Z,18.70
2023-04-12T01:34:23.439Z,18.71
2023-04-12T01:35:24.512Z,18.71
2023-04-12T01:36:24.485Z,18.73
2023-04-12T01:37:23.515Z,18.73
2023-04-12T01:38:24.534Z,18.74
2023-04-12T01:39:24.579Z,18.73
2023-04-12T01:40:24.627Z,18.74
2023-04-12T01:41:23.620Z,18.74
2023-04-12T01:42:23.664Z,18.74
2023-04-12T01:43:24.696Z,18.76
2023-04-12T01:44:24.829Z,18.77
2023-04-12T01:45:23.796Z,18.77
2023-04-12T01:46:24.825Z,18.77
2023-04-12T01:47:24.828Z,18.79
2023-04-12T01:48:23.847Z,18.78
2023-04-12T01:49:24.887Z,18.78
2023-04-12T01:50:23.934Z,18.79
2023-04-12T01:51:24.953Z,18.79
2023-04-12T01:52:25.009Z,18.80
2023-04-12T01:53:25.032Z,18.80
2023-04-12T01:54:25.068Z,18.80
2023-04-12T01:55:25.145Z,18.81
2023-04-12T01:56:24.144Z,18.81
2023-04-12T01:57:24.201Z,18.82
2023-04-12T01:58:25.275Z,18.83
2023-04-12T01:59:24.297Z,18.83
2023-04-12T02:00:25.391Z,18.83
2023-04-12T02:01:24.443Z,18.83
2023-04-12T02:02:24.545Z,18.85
2023-04-12T02:03:24.699Z,18.86
2023-04-12T02:04:25.600Z,18.86
2023-04-12T02:05:25.657Z,18.85
2023-04-12T02:06:25.709Z,18.85
2023-04-12T02:07:25.781Z,18.85
2023-04-12T02:08:25.837Z,18.86
2023-04-12T02:09:25.897Z,18.86
2023-04-12T02:10:25.979Z,18.86
2023-04-12T02:11:26.028Z,18.87
2023-04-12T02:12:25.090Z,18.87
2023-04-12T02:13:26.161Z,18.87
2023-04-12T02:14:25.224Z,18.88
2023-04-12T02:15:26.292Z,18.88
2023-04-12T02:16:26.407Z,18.88
2023-04-12T02:17:26.443Z,18.89
2023-04-12T02:18:25.478Z,18.89
2023-04-12T02:19:26.514Z,18.89
2023-04-12T02:20:25.602Z,18.90
2023-04-12T02:21:25.681Z,18.90
2023-04-12T02:22:26.697Z,18.91
2023-04-12T02:23:25.749Z,18.90
2023-04-12T02:24:26.819Z,18.90
2023-04-12T02:25:26.897Z,18.91
2023-04-12T02:26:26.964Z,18.92
2023-04-12T02:27:26.019Z,18.92
2023-04-12T02:28:26.076Z,18.93
2023-04-12T02:29:27.139Z,18.93
2023-04-12T02:30:26.218Z,18.93
2023-04-12T02:31:26.256Z,18.94
2023-04-12T02:32:27.414Z,18.93
2023-04-12T02:33:26.401Z,18.92
2023-04-12T02:34:26.452Z,18.93
2023-04-12T02:35:27.560Z,18.93
2023-04-12T02:36:26.590Z,18.92
2023-04-12T02:37:26.641Z,18.93
2023-04-12T02:38:27.706Z,18.93
2023-04-12T02:39:27.780Z,18.95
2023-04-12T02:40:27.839Z,18.94
2023-04-12T02:41:27.903Z,18.94
2023-04-12T02:42:26.979Z,18.94
2023-04-12T02:43:28.021Z,18.94
2023-04-12T02:44:28.088Z,18.95
2023-04-12T02:45:28.247Z,18.95
2023-04-12T02:46:27.413Z,18.95
2023-04-12T02:47:28.335Z,18.96
2023-04-12T02:48:28.346Z,18.96
2023-04-12T02:49:28.396Z,18.97
2023-04-12T02:50:27.462Z,18.96
2023-04-12T02:51:28.537Z,18.96
2023-04-12T02:52:28.567Z,18.97
2023-04-12T02:53:27.639Z,18.97
2023-04-12T02:54:27.716Z,18.97
2023-04-12T02:55:27.778Z,18.98
2023-04-12T02:56:27.825Z,18.98
2023-04-12T02:57:28.911Z,18.98
2023-04-12T02:58:28.945Z,18.98
2023-04-12T02:59:29.026Z,18.98
2023-04-12T03:00:29.107Z,18.98
2023-04-12T03:01:28.223Z,19.00
2023-04-12T03:02:29.348Z,19.00
2023-04-12T03:03:28.403Z,19.00
2023-04-12T03:04:29.481Z,19.00
2023-04-12T03:05:29.395Z,19.00
2023-04-12T03:06:29.457Z,19.01
2023-04-12T03:07:29.506Z,19.00
2023-04-12T03:08:28.574Z,19.00
2023-04-12T03:09:29.686Z,19.01
2023-04-12T03:10:28.718Z,19.00
2023-04-12T03:11:28.777Z,19.01
2023-04-12T03:12:28.845Z,19.01
2023-04-12T03:13:29.912Z,19.02
2023-04-12T03:14:29.956Z,19.02
2023-04-12T03:15:29.054Z,19.02
2023-04-12T03:16:30.254Z,19.02
2023-04-12T03:17:30.204Z,19.02
2023-04-12T03:18:30.221Z,19.03
2023-04-12T03:19:30.266Z,19.02
2023-04-12T03:20:29.360Z,19.03
2023-04-12T03:21:30.411Z,19.03
2023-04-12T03:22:30.445Z,19.03
2023-04-12T03:23:29.496Z,19.04
2023-04-12T03:24:30.558Z,19.04
2023-04-12T03:25:29.642Z,19.04
2023-04-12T03:26:29.686Z,19.05
2023-04-12T03:27:29.764Z,19.03
2023-04-12T03:28:30.814Z,19.04
2023-04-12T03:29:30.892Z,19.05
2023-04-12T03:30:30.944Z,19.05
2023-04-12T03:31:31.047Z,19.06
2023-04-12T03:32:31.122Z,19.05
2023-04-12T03:33:31.149Z,19.05
2023-04-12T03:34:31.205Z,19.06
2023-04-12T03:35:31.362Z,19.06
2023-04-12T03:36:30.317Z,19.05
2023-04-12T03:37:30.437Z,19.05
2023-04-12T03:38:30.432Z,19.04
2023-04-12T03:39:31.511Z,19.04
2023-04-12T03:40:31.562Z,19.06
2023-04-12T03:41:31.615Z,19.06
2023-04-12T03:42:33.540Z,19.06
2023-04-12T03:43:31.675Z,19.06
2023-04-12T03:44:31.668Z,19.06
2023-04-12T03:45:31.666Z,19.07
2023-04-12T03:46:31.701Z,19.07
2023-04-12T03:47:31.669Z,19.07
2023-04-12T03:48:30.638Z,19.07
2023-04-12T03:49:30.630Z,19.08
2023-04-12T03:50:30.622Z,19.09
2023-04-12T03:51:31.700Z,19.09
2023-04-12T03:52:30.624Z,19.09
2023-04-12T03:53:30.625Z,19.09
2023-04-12T03:54:30.605Z,19.10
2023-04-12T03:55:31.584Z,19.11
2023-04-12T03:56:31.578Z,19.11
2023-04-12T03:57:30.575Z,19.12
2023-04-12T03:58:31.558Z,19.12
2023-04-12T03:59:31.561Z,19.10
2023-04-12T04:00:31.548Z,19.10
2023-04-12T04:01:31.572Z,19.10
2023-04-12T04:02:31.928Z,19.11
2023-04-12T04:03:30.665Z,19.11
2023-04-12T04:04:31.704Z,19.11
2023-04-12T04:05:31.515Z,19.10
2023-04-12T04:06:31.514Z,19.10
2023-04-12T04:07:31.609Z,19.10
2023-04-12T04:08:31.604Z,19.09
2023-04-12T04:09:30.648Z,19.09
2023-04-12T04:10:31.696Z,19.08
2023-04-12T04:11:31.766Z,19.09
2023-04-12T04:12:30.821Z,19.07
2023-04-12T04:13:31.879Z,19.07
2023-04-12T04:14:30.978Z,19.07
2023-04-12T04:15:31.991Z,19.06
2023-04-12T04:16:31.236Z,19.06
2023-04-12T04:17:31.177Z,19.06
2023-04-12T04:18:32.190Z,19.06
2023-04-12T04:19:32.246Z,19.05
2023-04-12T04:20:32.318Z,19.05
2023-04-12T04:21:32.417Z,19.05
2023-04-12T04:22:32.459Z,19.04
2023-04-12T04:23:32.511Z,19.04
2023-04-12T04:24:32.550Z,19.04
2023-04-12T04:25:32.602Z,19.03
2023-04-12T04:26:32.708Z,19.03
2023-04-12T04:27:31.747Z,19.03
2023-04-12T04:28:34.186Z,19.03
2023-04-12T04:29:31.809Z,19.03
2023-04-12T04:30:32.807Z,19.03
2023-04-12T04:31:32.853Z,19.03
2023-04-12T04:32:31.826Z,19.02
2023-04-12T04:33:32.771Z,19.02
2023-04-12T04:34:32.754Z,19.02
2023-04-12T04:35:32.785Z,19.02
2023-04-12T04:36:32.750Z,19.03
2023-04-12T04:37:32.755Z,19.03
2023-04-12T04:38:32.745Z,19.02
2023-04-12T04:39:31.772Z,19.02
2023-04-12T04:40:32.715Z,19.01
2023-04-12T04:41:32.722Z,19.01
2023-04-12T04:42:32.697Z,19.01
2023-04-12T04:43:31.698Z,19.01
2023-04-12T04:44:32.693Z,19.01
2023-04-12T04:45:31.709Z,19.01
2023-04-12T04:46:32.688Z,19.02
2023-04-12T04:47:32.818Z,19.01
2023-04-12T04:48:32.659Z,19.02
2023-04-12T04:49:31.668Z,19.02
2023-04-12T04:50:32.643Z,19.00
2023-04-12T04:51:31.632Z,19.01
2023-04-12T04:52:32.685Z,19.00
2023-04-12T04:53:31.742Z,19.02
2023-04-12T04:54:32.802Z,19.01
2023-04-12T04:55:32.894Z,19.01
2023-04-12T04:56:32.957Z,19.01
2023-04-12T04:57:32.997Z,19.01
2023-04-12T04:58:32.066Z,19.01
2023-04-12T04:59:33.140Z,19.01
2023-04-12T05:00:33.201Z,19.01
2023-04-12T05:01:33.316Z,19.01
2023-04-12T05:02:32.406Z,19.02
2023-04-12T05:03:33.425Z,19.01
2023-04-12T05:04:33.435Z,19.01
2023-04-12T05:05:32.582Z,19.02
2023-04-12T05:06:32.612Z,19.01
2023-04-12T05:07:33.647Z,19.02
2023-04-12T05:08:32.722Z,19.02
2023-04-12T05:09:33.756Z,19.02
2023-04-12T05:10:32.813Z,19.02
2023-04-12T05:11:33.914Z,19.02
2023-04-12T05:12:33.943Z,19.02
2023-04-12T05:13:34.015Z,19.01
2023-04-12T05:14:45.829Z,19.03
2023-04-12T05:15:34.074Z,19.03
2023-04-12T05:16:33.111Z,19.02
2023-04-12T05:17:33.149Z,19.03
2023-04-12T05:18:33.029Z,19.05
2023-04-12T05:19:34.052Z,19.05
2023-04-12T05:20:34.032Z,19.06
2023-04-12T05:21:33.241Z,19.06
2023-04-12T05:22:34.036Z,19.06
2023-04-12T05:23:33.996Z,19.08
2023-04-12T05:24:33.990Z,19.08
2023-04-12T05:25:34.228Z,19.10
2023-04-12T05:26:34.710Z,19.11
2023-04-12T05:27:33.007Z,19.13
2023-04-12T05:28:33.106Z,19.14
2023-04-12T05:29:34.069Z,19.16
2023-04-12T05:30:32.971Z,19.20
2023-04-12T05:31:33.973Z,19.22
2023-04-12T05:32:34.229Z,19.26
2023-04-12T05:33:33.960Z,19.28
2023-04-12T05:34:33.923Z,19.29
2023-04-12T05:35:33.977Z,19.30
2023-04-12T05:36:33.943Z,19.33
2023-04-12T05:37:32.889Z,19.36
2023-04-12T05:38:33.912Z,19.41
2023-04-12T05:39:33.881Z,19.44
2023-04-12T05:40:33.862Z,19.45
2023-04-12T05:41:32.876Z,19.46
2023-04-12T05:42:32.900Z,19.47
2023-04-12T05:43:33.952Z,19.49
2023-04-12T05:44:33.927Z,19.53
2023-04-12T05:45:34.123Z,19.57
2023-04-12T05:46:34.049Z,19.62
2023-04-12T05:47:33.996Z,19.67
2023-04-12T05:48:34.085Z,19.68
2023-04-12T05:49:32.947Z,19.70
2023-04-12T05:50:34.164Z,19.73
2023-04-12T05:51:40.925Z,19.75
2023-04-12T05:52:38.085Z,19.86
2023-04-12T05:53:33.901Z,19.92
2023-04-12T05:54:32.887Z,19.97
2023-04-12T05:55:35.871Z,20.00
2023-04-12T05:56:33.893Z,20.02
2023-04-12T05:57:33.898Z,20.06
2023-04-12T05:58:34.047Z,20.10
2023-04-12T05:59:33.914Z,20.11
2023-04-12T06:00:33.963Z,20.06
2023-04-12T06:01:32.826Z,20.05
2023-04-12T06:02:34.207Z,20.02
2023-04-12T06:03:32.974Z,19.99
2023-04-12T06:04:46.849Z,19.96
2023-04-12T06:05:33.856Z,19.94
2023-04-12T06:06:33.827Z,19.94
2023-04-12T06:07:32.848Z,19.92
2023-04-12T06:08:35.471Z,19.90
2023-04-12T06:09:33.785Z,19.88
2023-04-12T06:10:33.855Z,19.87
2023-04-12T06:11:33.762Z,19.85
2023-04-12T06:12:36.610Z,19.84
2023-04-12T06:13:33.742Z,19.83
2023-04-12T06:14:33.787Z,19.82
2023-04-12T06:15:32.778Z,19.82
2023-04-12T06:16:33.770Z,19.79
2023-04-12T06:17:33.826Z,19.79
2023-04-12T06:18:32.720Z,19.79
2023-04-12T06:19:32.733Z,19.79
2023-04-12T06:20:32.715Z,19.78
2023-04-12T06:21:33.704Z,19.78
2023-04-12T06:22:33.686Z,19.78
2023-04-12T06:23:33.744Z,19.77
2023-04-12T06:24:33.674Z,19.77
2023-04-12T06:25:33.680Z,19.77
2023-04-12T06:26:39.873Z,19.77
2023-04-12T06:27:33.762Z,19.76
2023-04-12T06:28:32.642Z,19.76
2023-04-12T06:29:33.649Z,19.77
2023-04-12T06:30:32.647Z,19.77
2023-04-12T06:31:33.771Z,19.78
2023-04-12T06:32:33.697Z,19.78
2023-04-12T06:33:32.620Z,19.77
2023-04-12T06:34:34.796Z,19.77
2023-04-12T06:35:33.614Z,19.75
2023-04-12T06:36:33.595Z,19.75
2023-04-12T06:37:32.597Z,19.75
2023-04-12T06:38:33.558Z,19.75
2023-04-12T06:39:33.562Z,19.74
2023-04-12T06:40:33.592Z,19.74
2023-04-12T06:41:32.616Z,19.74
2023-04-12T06:42:33.618Z,19.73
2023-04-12T06:43:33.652Z,19.73
2023-04-12T06:44:33.634Z,19.73
2023-04-12T06:45:33.637Z,19.72
2023-04-12T06:46:32.720Z,19.73
2023-04-12T06:47:33.731Z,19.73
2023-04-12T06:48:32.698Z,19.73
2023-04-12T06:50:32.735Z,19.73
2023-04-12T06:51:33.862Z,19.73
2023-04-12T06:52:33.079Z,19.73
2023-04-12T06:53:33.907Z,19.72
2023-04-12T06:54:34.075Z,19.76
2023-04-12T06:55:32.783Z,19.79
2023-04-12T06:56:33.755Z,19.82
2023-04-12T06:57:34.084Z,19.89
2023-04-12T06:58:33.756Z,19.98
2023-04-12T06:59:33.747Z,20.07
2023-04-12T07:00:32.756Z,20.13
2023-04-12T07:01:32.706Z,20.16
2023-04-12T07:02:33.852Z,20.22
2023-04-12T07:03:33.826Z,20.26
2023-04-12T07:04:32.706Z,20.30
2023-04-12T07:05:32.717Z,20.34
2023-04-12T07:06:32.675Z,20.38
2023-04-12T07:07:32.720Z,20.39
2023-04-12T07:08:33.660Z,20.42
2023-04-12T07:09:32.661Z,20.46
2023-04-12T07:10:32.649Z,20.48
2023-04-12T07:11:33.668Z,20.50
2023-04-12T07:12:32.675Z,20.52
2023-04-12T07:13:33.625Z,20.56
2023-04-12T07:14:33.633Z,20.57
2023-04-12T07:15:33.623Z,20.59
2023-04-12T07:16:32.854Z,20.61
2023-04-12T07:17:33.631Z,20.63
2023-04-12T07:18:33.651Z,20.64
2023-04-12T07:19:32.720Z,20.67
2023-04-12T07:20:32.721Z,20.69
2023-04-12T07:21:33.769Z,20.71
2023-04-12T07:22:33.807Z,20.72
2023-04-12T07:23:33.870Z,20.75
2023-04-12T07:24:33.921Z,20.78
2023-04-12T07:25:32.851Z,20.78
2023-04-12T07:26:33.872Z,20.80
2023-04-12T07:27:32.896Z,20.82
2023-04-12T07:28:33.962Z,20.79
2023-04-12T07:29:33.977Z,20.73
2023-04-12T07:30:32.989Z,20.67
2023-04-12T07:31:33.041Z,20.61
2023-04-12T07:32:33.269Z,20.55
2023-04-12T07:33:33.299Z,20.50
2023-04-12T07:34:33.269Z,20.47
2023-04-12T07:35:34.293Z,20.47
2023-04-12T07:36:40.290Z,20.48
2023-04-12T07:37:34.319Z,20.50
2023-04-12T07:38:34.300Z,20.55
2023-04-12T07:39:34.305Z,20.57
2023-04-12T07:40:34.282Z,20.61
2023-04-12T07:41:34.292Z,20.62
2023-04-12T07:42:34.302Z,20.65
2023-04-12T07:43:33.286Z,20.69
2023-04-12T07:44:36.422Z,20.72
2023-04-12T07:45:34.242Z,20.75
2023-04-12T07:46:33.277Z,20.78
2023-04-12T07:47:34.648Z,20.78
2023-04-12T07:48:34.271Z,20.79
2023-04-12T07:49:33.207Z,20.78
2023-04-12T07:50:34.222Z,20.73
2023-04-12T07:51:34.634Z,20.64
2023-04-12T07:52:34.593Z,20.57
2023-04-12T07:53:34.253Z,20.49
2023-04-12T07:54:33.168Z,20.42
2023-04-12T07:55:33.166Z,20.37
2023-04-12T07:56:34.180Z,20.37
2023-04-12T07:57:34.308Z,20.40
2023-04-12T07:58:34.178Z,20.43
2023-04-12T07:59:34.144Z,20.46
2023-04-12T08:00:33.150Z,20.49
2023-04-12T08:01:34.229Z,20.52
2023-04-12T08:02:34.727Z,20.52
2023-04-12T08:03:34.405Z,20.54
2023-04-12T08:04:34.415Z,20.56
2023-04-12T08:05:34.510Z,20.57
2023-04-12T08:06:34.619Z,20.60
2023-04-12T08:07:34.718Z,20.60
2023-04-12T08:08:34.636Z,20.61
2023-04-12T08:09:33.691Z,20.62
2023-04-12T08:10:33.768Z,20.64
2023-04-12T08:11:34.815Z,20.66
2023-04-12T08:12:34.879Z,20.71
2023-04-12T08:13:34.933Z,20.76
2023-04-12T08:14:33.964Z,20.82
2023-04-12T08:15:35.067Z,20.87
2023-04-12T08:16:34.037Z,20.91
2023-04-12T08:17:34.093Z,20.92
2023-04-12T08:18:35.097Z,20.97
2023-04-12T08:19:35.131Z,21.04
2023-04-12T08:20:35.258Z,21.13
2023-04-12T08:21:35.188Z,21.19
2023-04-12T08:22:34.169Z,21.24
2023-04-12T08:23:35.244Z,21.28
2023-04-12T08:24:35.231Z,21.34
2023-04-12T08:25:35.269Z,21.40
2023-04-12T08:26:35.323Z,21.44
2023-04-12T08:27:34.316Z,21.48
2023-04-12T08:28:36.419Z,21.53
2023-04-12T08:29:34.297Z,21.55
2023-04-12T08:30:34.320Z,21.56
2023-04-12T08:31:35.414Z,21.56
2023-04-12T08:32:34.386Z,21.60
2023-04-12T08:33:35.294Z,21.65
2023-04-12T08:34:35.287Z,21.69
2023-04-12T08:35:35.290Z,21.73
2023-04-12T08:36:34.275Z,21.75
2023-04-12T08:37:34.623Z,21.72
2023-04-12T08:38:44.993Z,21.69
2023-04-12T08:39:35.289Z,21.64
2023-04-12T08:40:34.268Z,21.68
2023-04-12T08:41:37.613Z,21.68
2023-04-12T08:42:34.614Z,21.69
2023-04-12T08:43:34.239Z,21.73
2023-04-12T08:44:34.213Z,21.73
2023-04-12T08:45:35.262Z,21.72
2023-04-12T08:46:34.276Z,21.68
2023-04-12T08:47:35.657Z,21.66
2023-04-12T08:48:35.201Z,21.64
2023-04-12T08:49:34.180Z,21.63
2023-04-12T08:50:35.179Z,21.65
2023-04-12T08:51:35.172Z,21.72
2023-04-12T08:52:35.621Z,21.74
2023-04-12T08:53:34.156Z,21.77
2023-04-12T08:54:34.171Z,21.77
2023-04-12T08:55:35.194Z,21.80
2023-04-12T08:56:34.149Z,21.77
2023-04-12T08:57:35.647Z,21.64
2023-04-12T08:58:34.158Z,21.38
2023-04-12T08:59:35.116Z,20.99
2023-04-12T09:00:35.125Z,20.65
2023-04-12T09:01:34.105Z,20.44
2023-04-12T09:02:35.249Z,20.28
2023-04-12T09:03:35.251Z,20.13
2023-04-12T09:04:35.167Z,19.99
2023-04-12T09:05:35.072Z,19.88
2023-04-12T09:06:35.051Z,19.80
2023-04-12T09:07:35.107Z,19.61
2023-04-12T09:08:35.041Z,19.52
2023-04-12T09:09:34.056Z,19.51
2023-04-12T09:10:35.065Z,19.52
2023-04-12T09:11:34.286Z,19.56
2023-04-12T09:12:34.015Z,19.68
2023-04-12T09:13:34.005Z,19.73
2023-04-12T09:14:35.021Z,19.76
2023-04-12T09:15:35.054Z,19.79
2023-04-12T09:16:35.146Z,19.82
2023-04-12T09:17:35.083Z,19.87
2023-04-12T09:18:34.138Z,19.87
2023-04-12T09:19:35.155Z,19.93
2023-04-12T09:20:35.160Z,20.03
2023-04-12T09:21:35.256Z,19.98
2023-04-12T09:22:35.300Z,19.91
2023-04-12T09:23:35.303Z,19.81
2023-04-12T09:24:34.354Z,19.75
2023-04-12T09:25:34.399Z,19.73
2023-04-12T09:26:34.463Z,19.83
2023-04-12T09:27:35.555Z,19.88
2023-04-12T09:28:35.535Z,19.90
2023-04-12T09:29:35.572Z,19.86
2023-04-12T09:30:35.604Z,19.82
2023-04-12T09:31:34.668Z,19.86
2023-04-12T09:32:34.740Z,19.91
2023-04-12T09:33:34.714Z,19.96
2023-04-12T09:34:35.687Z,20.00
2023-04-12T09:35:34.739Z,20.03
2023-04-12T09:36:34.726Z,20.10
2023-04-12T09:37:34.726Z,20.15
2023-04-12T09:38:35.714Z,20.23
2023-04-12T09:39:35.735Z,20.32
2023-04-12T09:40:34.786Z,20.40
2023-04-12T09:41:35.832Z,20.46
2023-04-12T09:42:35.879Z,20.51
2023-04-12T09:43:36.057Z,20.56
2023-04-12T09:44:36.008Z,20.58
2023-04-12T09:45:36.078Z,20.64
2023-04-12T09:46:36.209Z,20.73
2023-04-12T09:47:35.697Z,20.80
2023-04-12T09:48:36.253Z,20.83
2023-04-12T09:49:36.290Z,20.86
2023-04-12T09:50:36.322Z,20.98
2023-04-12T09:51:36.455Z,21.08
2023-04-12T09:52:36.680Z,21.14
2023-04-12T09:53:36.500Z,21.19
2023-04-12T09:54:36.494Z,21.22
2023-04-12T09:55:35.506Z,21.23
2023-04-12T09:56:36.588Z,21.27
2023-04-12T09:57:36.548Z,21.30
2023-04-12T09:58:36.551Z,21.32
2023-04-12T09:59:36.597Z,21.32
2023-04-12T10:00:36.548Z,21.35
2023-04-12T10:01:36.632Z,21.39
2023-04-12T10:02:36.770Z,21.42
2023-04-12T10:03:36.639Z,21.46
2023-04-12T10:04:36.655Z,21.46
2023-04-12T10:05:36.716Z,21.47
2023-04-12T10:06:36.538Z,21.50
2023-04-12T10:07:35.570Z,21.54
2023-04-12T10:08:35.596Z,21.56
2023-04-12T10:09:36.629Z,21.58
2023-04-12T10:10:36.711Z,21.62
2023-04-12T10:11:36.722Z,21.66
2023-04-12T10:12:35.788Z,21.68
2023-04-12T10:13:36.877Z,21.71
2023-04-12T10:14:35.911Z,21.73
2023-04-12T10:15:35.998Z,21.76
2023-04-12T10:16:36.072Z,21.77
2023-04-12T10:17:37.199Z,21.80
2023-04-12T10:18:37.207Z,21.84
2023-04-12T10:19:37.230Z,21.86
2023-04-12T10:20:36.292Z,21.89
2023-04-12T10:21:37.325Z,21.91
2023-04-12T10:22:36.409Z,21.94
2023-04-12T10:23:37.504Z,21.94
2023-04-12T10:24:36.531Z,21.97
2023-04-12T10:25:36.602Z,21.99
2023-04-12T10:26:37.600Z,22.02
2023-04-12T10:27:36.649Z,22.05
2023-04-12T10:28:37.708Z,22.06
2023-04-12T10:29:37.779Z,22.08
2023-04-12T10:30:37.859Z,22.08
2023-04-12T10:31:37.958Z,22.08
2023-04-12T10:32:36.939Z,22.10
2023-04-12T10:33:36.997Z,22.10
2023-04-12T10:34:38.001Z,22.13
2023-04-12T10:35:38.076Z,22.13
2023-04-12T10:36:38.115Z,22.16
2023-04-12T10:37:38.163Z,22.17
2023-04-12T10:38:38.252Z,22.17
2023-04-12T10:39:37.238Z,22.20
2023-04-12T10:40:38.310Z,22.22
2023-04-12T10:41:38.337Z,22.23
2023-04-12T10:42:38.387Z,22.25
2023-04-12T10:43:38.712Z,22.25
2023-04-12T10:44:38.413Z,22.23
2023-04-12T10:45:38.469Z,22.24
2023-04-12T10:46:39.145Z,22.20
2023-04-12T10:47:38.581Z,22.22
2023-04-12T10:48:38.675Z,22.19
2023-04-12T10:49:37.703Z,22.17
2023-04-12T10:50:37.735Z,22.13
2023-04-12T10:51:38.819Z,22.10
2023-04-12T10:52:37.848Z,22.05
2023-04-12T10:53:38.954Z,22.04
2023-04-12T10:54:37.929Z,22.03
2023-04-12T10:55:38.968Z,22.01
2023-04-12T10:56:39.003Z,22.00
2023-04-12T10:57:38.995Z,22.00
2023-04-12T10:58:38.043Z,22.00
2023-04-12T10:59:47.378Z,21.99
2023-04-12T11:00:39.175Z,21.99
2023-04-12T11:01:39.728Z,22.00
2023-04-12T11:02:39.298Z,22.00
2023-04-12T11:03:38.245Z,22.01
2023-04-12T11:04:39.145Z,22.03
2023-04-12T11:05:38.224Z,22.04
2023-04-12T11:06:38.974Z,22.05
2023-04-12T11:07:38.983Z,22.07
2023-04-12T11:08:39.012Z,22.07
2023-04-12T11:09:37.993Z,22.08
2023-04-12T11:10:38.039Z,22.09
2023-04-12T11:11:38.073Z,22.10
2023-04-12T11:12:38.184Z,22.11
2023-04-12T11:13:39.220Z,22.10
2023-04-12T11:14:39.314Z,22.12
2023-04-12T11:15:38.304Z,22.12
2023-04-12T11:16:39.520Z,22.12
2023-04-12T11:17:38.474Z,22.11
2023-04-12T11:18:39.684Z,22.09
2023-04-12T11:19:38.614Z,22.08
2023-04-12T11:20:38.639Z,22.06
2023-04-12T11:21:39.693Z,22.06
2023-04-12T11:22:39.695Z,22.06
2023-04-12T11:23:38.779Z,22.05
2023-04-12T11:24:39.850Z,22.05
2023-04-12T11:25:39.883Z,22.05
2023-04-12T11:26:40.676Z,22.05
2023-04-12T11:27:39.987Z,22.06
2023-04-12T11:28:40.069Z,22.06
2023-04-12T11:29:39.103Z,22.06
2023-04-12T11:30:40.157Z,22.07
2023-04-12T11:31:40.288Z,22.07
2023-04-12T11:32:39.395Z,22.05
2023-04-12T11:33:40.376Z,22.05
2023-04-12T11:34:39.432Z,22.05
2023-04-12T11:35:40.485Z,22.03
2023-04-12T11:36:40.543Z,22.03
2023-04-12T11:37:40.587Z,22.06
2023-04-12T11:38:39.660Z,22.06
2023-04-12T11:39:40.706Z,22.05
2023-04-12T11:40:40.783Z,22.03
2023-04-12T11:41:39.803Z,21.99
2023-04-12T11:42:40.832Z,21.95
2023-04-12T11:43:41.256Z,21.92
2023-04-12T11:44:55.110Z,21.89
2023-04-12T11:45:40.870Z,21.85
2023-04-12T11:46:39.830Z,21.82
2023-04-12T11:47:40.862Z,21.79
2023-04-12T11:48:39.882Z,21.76
2023-04-12T11:49:40.788Z,21.73
2023-04-12T11:50:40.878Z,21.70
2023-04-12T11:51:40.775Z,21.67
2023-04-12T11:52:40.804Z,21.65
2023-04-12T11:53:39.827Z,21.63
2023-04-12T11:54:40.798Z,21.61
2023-04-12T11:55:40.755Z,21.59
2023-04-12T11:56:40.737Z,21.57
2023-04-12T11:57:40.745Z,21.56
2023-04-12T11:58:39.753Z,21.54
2023-04-12T11:59:40.745Z,21.52
2023-04-12T12:00:40.777Z,21.51
2023-04-12T12:01:40.786Z,21.50
2023-04-12T12:02:46.675Z,21.48
2023-04-12T12:03:41.438Z,21.45
2023-04-12T12:04:40.865Z,21.44
2023-04-12T12:05:42.063Z,21.46
2023-04-12T12:06:43.044Z,21.46
2023-04-12T12:07:41.970Z,21.47
2023-04-12T12:08:39.699Z,21.46
2023-04-12T12:09:41.211Z,21.47
2023-04-12T12:10:55.471Z,21.48
2023-04-12T12:11:40.682Z,21.49
2023-04-12T12:12:39.623Z,21.51
2023-04-12T12:13:41.068Z,21.53
2023-04-12T12:14:39.621Z,21.54
2023-04-12T12:15:42.163Z,21.55
2023-04-12T12:16:40.736Z,21.53
2023-04-12T12:17:40.777Z,21.54
2023-04-12T12:18:40.781Z,21.60
2023-04-12T12:19:39.804Z,21.66
2023-04-12T12:20:40.802Z,21.71
2023-04-12T12:21:40.844Z,21.74
2023-04-12T12:22:39.940Z,21.74
2023-04-12T12:23:40.888Z,21.75
2023-04-12T12:24:43.587Z,21.74
2023-04-12T12:25:40.909Z,21.74
2023-04-12T12:26:39.871Z,21.74
2023-04-12T12:27:40.930Z,21.73
2023-04-12T12:28:40.862Z,21.74
2023-04-12T12:29:39.849Z,21.73
2023-04-12T12:30:39.856Z,21.74
2023-04-12T12:31:43.248Z,21.80
2023-04-12T12:32:40.835Z,21.83
2023-04-12T12:34:00.285Z,21.82
2023-04-12T12:34:40.840Z,21.81
2023-04-12T12:35:39.815Z,21.80
2023-04-12T12:36:39.797Z,21.78
2023-04-12T12:37:40.812Z,21.77
2023-04-12T12:38:40.853Z,21.77
2023-04-12T12:39:40.795Z,21.76
2023-04-12T12:40:39.768Z,21.77
2023-04-12T12:41:40.862Z,21.75
2023-04-12T12:42:40.770Z,21.77
2023-04-12T12:43:40.765Z,21.81
2023-04-12T12:44:40.753Z,21.84
2023-04-12T12:45:39.763Z,21.83
2023-04-12T12:46:53.551Z,21.81
2023-04-12T12:47:40.824Z,21.77
2023-04-12T12:48:40.785Z,21.76
2023-04-12T12:49:39.740Z,21.78
2023-04-12T12:50:39.717Z,21.82
2023-04-12T12:51:40.715Z,21.87
2023-04-12T12:52:39.736Z,21.91
2023-04-12T12:53:40.694Z,21.94